Nor Naomi — V7NL5 — position and weather

sailwx.info

Track history (hours):
 
Tides and Currents Weather Stations Pressure Air Temp Water Temp Dewpoint Dewpoint Depression Visibility Wind Speed Wind Dir Waves Ship Positions

Nor Naomi

Last reported at 2018-Aug-12 17:48 UTC. Time now 2018-Aug-14 19:29 UTC.
Position N 31°50' E 034°39'.

Length 86 m; draft 5.3 m.

Type: Ship. MMSI: 538007432.

Date/timePositionNaut miles runAvg speedWind from/ knotsBaromVisibWave heightAir tempDewpointWater temp
2018-Aug-12 17:48N 31°50' E 034°39'0 0.0
2018-Aug-12 16:42N 31°50' E 034°39'0 0.0
2018-Aug-12 16:27N 31°50' E 034°39'0 0.0
2018-Aug-12 16:01N 31°50' E 034°39'0 0.0
2018-Aug-12 15:30N 31°50' E 034°39'0 0.0
2018-Aug-12 15:00N 31°50' E 034°39'0 0.0
2018-Aug-12 14:31N 31°50' E 034°39'0 0.0
2018-Aug-12 14:00N 31°50' E 034°39'0 0.0
2018-Aug-12 13:29N 31°50' E 034°39'0 0.0
2018-Aug-12 12:58N 31°50' E 034°39'0 0.9
2018-Aug-12 12:28N 31°50' E 034°38'0 0.0
2018-Aug-11 23:03N 31°50' E 034°39'0 0.1
2018-Aug-11 23:00N 31°50' E 034°39'0 0.0
2018-Aug-11 15:12N 31°50' E 034°39'0 0.0
2018-Aug-11 14:48N 31°50' E 034°39'0 0.0
2018-Aug-11 14:21N 31°50' E 034°39'0 0.0
2018-Aug-11 13:57N 31°50' E 034°39'0 0.0
2018-Aug-11 13:27N 31°50' E 034°39'0 0.0
2018-Aug-11 13:00N 31°50' E 034°39'0 0.0
2018-Aug-11 12:30N 31°50' E 034°39'0 0.0
2018-Aug-11 12:00N 31°50' E 034°39'0 0.0
2018-Aug-11 11:24N 31°50' E 034°39'0 0.0
2018-Aug-11 11:00N 31°50' E 034°39'0 0.0
2018-Aug-10 17:05N 31°50' E 034°39'0 0.0
2018-Aug-10 17:01N 31°50' E 034°39'14 6.5
2018-Aug-10 14:49N 31°46' E 034°23'3 9.0
2018-Aug-10 14:28N 31°44' E 034°19'2 0.7
2018-Aug-10 12:21N 31°44' E 034°18'0 0.0
2018-Aug-10 12:00N 31°44' E 034°18'0 0.0
2018-Aug-10 11:31N 31°44' E 034°18'1 1.2
2018-Aug-10 11:01N 31°45' E 034°18'0 0.8
2018-Aug-10 10:30N 31°45' E 034°18'27 2.4
2018-Aug-09 22:59N 32°09' E 034°34'4 7.7
2018-Aug-09 22:25N 32°13' E 034°36'3 7.7
2018-Aug-09 22:01N 32°16' E 034°37'4 7.8
2018-Aug-09 21:30N 32°19' E 034°38'4 7.8
2018-Aug-09 21:01N 32°23' E 034°40'4 7.6
2018-Aug-09 20:30N 32°27' E 034°41'4 7.6
2018-Aug-09 20:01N 32°30' E 034°43'4 7.7
2018-Aug-09 19:28N 32°34' E 034°44'4 7.6
2018-Aug-09 18:59N 32°38' E 034°46'4 7.5
2018-Aug-09 18:30N 32°41' E 034°47'4 7.4
2018-Aug-09 18:01N 32°44' E 034°48'4 7.1
2018-Aug-09 17:31N 32°48' E 034°50'4 7.2
2018-Aug-09 17:00N 32°51' E 034°51'3 6.1
2018-Aug-09 16:30N 32°52' E 034°55'4 7.3
2018-Aug-09 16:00N 32°52' E 034°59'  
Track history (hours):
 
Tides and Currents Weather Stations Pressure Air Temp Water Temp Dewpoint Dewpoint Depression Visibility Wind Speed Wind Dir Waves Ship Positions

Nor Naomi

Last reported at 2018-Aug-12 17:48 UTC. Time now 2018-Aug-14 19:29 UTC.
Position N 31°50' E 034°39'.

Length 86 m; draft 5.3 m.

Type: Ship. MMSI: 538007432.

Date/timePositionNaut miles runAvg speedWind from/ knotsBaromVisibWave heightAir tempDewpointWater temp
2018-Aug-12 17:48N 31°50' E 034°39'0 0.0
2018-Aug-12 16:42N 31°50' E 034°39'0 0.0
2018-Aug-12 16:27N 31°50' E 034°39'0 0.0
2018-Aug-12 16:01N 31°50' E 034°39'0 0.0
2018-Aug-12 15:30N 31°50' E 034°39'0 0.0
2018-Aug-12 15:00N 31°50' E 034°39'0 0.0
2018-Aug-12 14:31N 31°50' E 034°39'0 0.0
2018-Aug-12 14:00N 31°50' E 034°39'0 0.0
2018-Aug-12 13:29N 31°50' E 034°39'0 0.0
2018-Aug-12 12:58N 31°50' E 034°39'0 0.9
2018-Aug-12 12:28N 31°50' E 034°38'0 0.0
2018-Aug-11 23:03N 31°50' E 034°39'0 0.1
2018-Aug-11 23:00N 31°50' E 034°39'0 0.0
2018-Aug-11 15:12N 31°50' E 034°39'0 0.0
2018-Aug-11 14:48N 31°50' E 034°39'0 0.0
2018-Aug-11 14:21N 31°50' E 034°39'0 0.0
2018-Aug-11 13:57N 31°50' E 034°39'0 0.0
2018-Aug-11 13:27N 31°50' E 034°39'0 0.0
2018-Aug-11 13:00N 31°50' E 034°39'0 0.0
2018-Aug-11 12:30N 31°50' E 034°39'0 0.0
2018-Aug-11 12:00N 31°50' E 034°39'0 0.0
2018-Aug-11 11:24N 31°50' E 034°39'0 0.0
2018-Aug-11 11:00N 31°50' E 034°39'0 0.0
2018-Aug-10 17:05N 31°50' E 034°39'0 0.0
2018-Aug-10 17:01N 31°50' E 034°39'14 6.5
2018-Aug-10 14:49N 31°46' E 034°23'3 9.0
2018-Aug-10 14:28N 31°44' E 034°19'2 0.7
2018-Aug-10 12:21N 31°44' E 034°18'0 0.0
2018-Aug-10 12:00N 31°44' E 034°18'0 0.0
2018-Aug-10 11:31N 31°44' E 034°18'1 1.2
2018-Aug-10 11:01N 31°45' E 034°18'0 0.8
2018-Aug-10 10:30N 31°45' E 034°18'27 2.4
2018-Aug-09 22:59N 32°09' E 034°34'4 7.7
2018-Aug-09 22:25N 32°13' E 034°36'3 7.7
2018-Aug-09 22:01N 32°16' E 034°37'4 7.8
2018-Aug-09 21:30N 32°19' E 034°38'4 7.8
2018-Aug-09 21:01N 32°23' E 034°40'4 7.6
2018-Aug-09 20:30N 32°27' E 034°41'4 7.6
2018-Aug-09 20:01N 32°30' E 034°43'4 7.7
2018-Aug-09 19:28N 32°34' E 034°44'4 7.6
2018-Aug-09 18:59N 32°38' E 034°46'4 7.5
2018-Aug-09 18:30N 32°41' E 034°47'4 7.4
2018-Aug-09 18:01N 32°44' E 034°48'4 7.1
2018-Aug-09 17:31N 32°48' E 034°50'4 7.2
2018-Aug-09 17:00N 32°51' E 034°51'3 6.1
2018-Aug-09 16:30N 32°52' E 034°55'4 7.3
2018-Aug-09 16:00N 32°52' E 034°59'  

Dump ship's entire track history